STX2027 WIII-WIEE
Flight info
| Callsign | STX2027 |
|---|---|
| Flight time | 1h 21m |
| Altitude | 36000 |
| Route | GUDBA T6 LEBEG |
| Aircraft | A320/M-SDE3FGHIRWY/LB1 |
Departure
| Time | 2026-05-05 11:17 |
|---|---|
| Airport | Soekarno-Hatta International Airport (WIII) |
Arrival
| Time | 2026-05-05 12:39 |
|---|---|
| Airport | Minangkabau International Airport (WIEE) |
| Time | Latitude | Longitude | Altitude | Speed | Heading |
|---|---|---|---|---|---|
| 2026-05-05 11:02 | -6.11805 | 106.65945 | 38 ft | 0 kts | 248° |
| 2026-05-05 11:04 | -6.11800 | 106.65957 | 36 ft | 3 kts | 247° |
| 2026-05-05 11:04 | -6.11792 | 106.65976 | 38 ft | 3 kts | 248° |
| 2026-05-05 11:05 | -6.11785 | 106.65994 | 37 ft | 3 kts | 262° |
| 2026-05-05 11:05 | -6.11785 | 106.66010 | 37 ft | 3 kts | 314° |
| 2026-05-05 11:05 | -6.11800 | 106.66019 | 37 ft | 3 kts | 320° |
| 2026-05-05 11:05 | -6.11808 | 106.66031 | 38 ft | 3 kts | 263° |
| 2026-05-05 11:06 | -6.11803 | 106.66050 | 38 ft | 3 kts | 246° |
| 2026-05-05 11:06 | -6.11798 | 106.66061 | 38 ft | 0 kts | 247° |
| 2026-05-05 11:09 | -6.11787 | 106.66016 | 38 ft | 13 kts | 318° |
| 2026-05-05 11:09 | -6.11689 | 106.65974 | 36 ft | 16 kts | 338° |
| 2026-05-05 11:09 | -6.11586 | 106.65926 | 38 ft | 16 kts | 313° |
| 2026-05-05 11:10 | -6.11611 | 106.65822 | 38 ft | 16 kts | 248° |
| 2026-05-05 11:10 | -6.11650 | 106.65726 | 38 ft | 14 kts | 248° |
| 2026-05-05 11:10 | -6.11685 | 106.65640 | 38 ft | 12 kts | 248° |
| 2026-05-05 11:10 | -6.11714 | 106.65567 | 36 ft | 10 kts | 248° |
| 2026-05-05 11:11 | -6.11739 | 106.65506 | 38 ft | 9 kts | 248° |
| 2026-05-05 11:11 | -6.11759 | 106.65456 | 37 ft | 7 kts | 248° |
| 2026-05-05 11:11 | -6.11775 | 106.65417 | 38 ft | 5 kts | 248° |
| 2026-05-05 11:11 | -6.11788 | 106.65383 | 36 ft | 6 kts | 249° |
| 2026-05-05 11:12 | -6.11810 | 106.65326 | 37 ft | 11 kts | 249° |
| 2026-05-05 11:12 | -6.11843 | 106.65239 | 38 ft | 14 kts | 249° |
| 2026-05-05 11:12 | -6.11876 | 106.65153 | 37 ft | 12 kts | 249° |
| 2026-05-05 11:12 | -6.11905 | 106.65078 | 38 ft | 11 kts | 249° |
| 2026-05-05 11:13 | -6.11930 | 106.65014 | 38 ft | 9 kts | 249° |
| 2026-05-05 11:13 | -6.11951 | 106.64960 | 37 ft | 8 kts | 249° |
| 2026-05-05 11:13 | -6.11969 | 106.64913 | 38 ft | 6 kts | 246° |
| 2026-05-05 11:13 | -6.11994 | 106.64859 | 37 ft | 12 kts | 245° |
| 2026-05-05 11:14 | -6.12036 | 106.64762 | 38 ft | 18 kts | 249° |
| 2026-05-05 11:14 | -6.12089 | 106.64623 | 38 ft | 24 kts | 248° |
| 2026-05-05 11:14 | -6.12153 | 106.64465 | 38 ft | 25 kts | 249° |
| 2026-05-05 11:14 | -6.12216 | 106.64301 | 38 ft | 25 kts | 249° |
| 2026-05-05 11:15 | -6.12284 | 106.64136 | 38 ft | 26 kts | 246° |
| 2026-05-05 11:15 | -6.12340 | 106.63999 | 37 ft | 14 kts | 250° |
| 2026-05-05 11:15 | -6.12312 | 106.63931 | 39 ft | 9 kts | 338° |
| 2026-05-05 11:15 | -6.12266 | 106.63913 | 38 ft | 5 kts | 337° |
| 2026-05-05 11:16 | -6.12215 | 106.63891 | 39 ft | 13 kts | 337° |
| 2026-05-05 11:16 | -6.12129 | 106.63894 | 39 ft | 12 kts | 5° |
| 2026-05-05 11:16 | -6.12076 | 106.63929 | 37 ft | 11 kts | 61° |
| 2026-05-05 11:16 | -6.11980 | 106.64165 | 38 ft | 72 kts | 68° |
| 2026-05-05 11:17 | -6.11711 | 106.64833 | 40 ft | 131 kts | 68° |
| 2026-05-05 11:17 | -6.11306 | 106.65835 | 46 ft | 177 kts | 66° |
| 2026-05-05 11:17 | -6.10831 | 106.67011 | 602 ft | 182 kts | 67° |
| 2026-05-05 11:17 | -6.10326 | 106.68180 | 1360 ft | 183 kts | 53° |
| 2026-05-05 11:18 | -6.09316 | 106.68975 | 1881 ft | 195 kts | 28° |
| 2026-05-05 11:18 | -6.08062 | 106.69693 | 2119 ft | 226 kts | 31° |
| 2026-05-05 11:18 | -6.06638 | 106.70552 | 2547 ft | 250 kts | 32° |
| 2026-05-05 11:18 | -6.05075 | 106.71403 | 3275 ft | 262 kts | 21° |
| 2026-05-05 11:19 | -6.03249 | 106.71613 | 4118 ft | 272 kts | 354° |
| 2026-05-05 11:19 | -6.01480 | 106.70923 | 4933 ft | 280 kts | 325° |
| 2026-05-05 11:19 | -6.00221 | 106.69404 | 5740 ft | 288 kts | 296° |
| 2026-05-05 11:19 | -5.99469 | 106.67530 | 6579 ft | 290 kts | 291° |
| 2026-05-05 11:20 | -5.98746 | 106.65623 | 7392 ft | 294 kts | 291° |
| 2026-05-05 11:20 | -5.98016 | 106.63690 | 8187 ft | 298 kts | 291° |
| 2026-05-05 11:20 | -5.97275 | 106.61736 | 8977 ft | 301 kts | 291° |
| 2026-05-05 11:20 | -5.96522 | 106.59765 | 9728 ft | 304 kts | 291° |
| 2026-05-05 11:21 | -5.95753 | 106.57756 | 10278 ft | 317 kts | 291° |
| 2026-05-05 11:21 | -5.94943 | 106.55645 | 10506 ft | 338 kts | 291° |
| 2026-05-05 11:21 | -5.94084 | 106.53408 | 11047 ft | 348 kts | 291° |
| 2026-05-05 11:21 | -5.93206 | 106.51128 | 11751 ft | 351 kts | 291° |
| 2026-05-05 11:22 | -5.92319 | 106.48824 | 12475 ft | 355 kts | 291° |
| 2026-05-05 11:22 | -5.91422 | 106.46503 | 13173 ft | 358 kts | 291° |
| 2026-05-05 11:22 | -5.90518 | 106.44154 | 13837 ft | 362 kts | 291° |
| 2026-05-05 11:22 | -5.89607 | 106.41786 | 14460 ft | 365 kts | 291° |
| 2026-05-05 11:23 | -5.88686 | 106.39394 | 15071 ft | 369 kts | 291° |
| 2026-05-05 11:23 | -5.87757 | 106.36980 | 15646 ft | 372 kts | 291° |
| 2026-05-05 11:23 | -5.86820 | 106.34545 | 16227 ft | 376 kts | 291° |
| 2026-05-05 11:23 | -5.85875 | 106.32087 | 16800 ft | 379 kts | 291° |
| 2026-05-05 11:24 | -5.84919 | 106.29604 | 17360 ft | 382 kts | 292° |
| 2026-05-05 11:24 | -5.83956 | 106.27102 | 17896 ft | 385 kts | 292° |
| 2026-05-05 11:24 | -5.82984 | 106.24582 | 18425 ft | 389 kts | 292° |
| 2026-05-05 11:24 | -5.82004 | 106.22048 | 18938 ft | 392 kts | 292° |
| 2026-05-05 11:25 | -5.81012 | 106.19481 | 19444 ft | 395 kts | 292° |
| 2026-05-05 11:25 | -5.80018 | 106.16906 | 19926 ft | 398 kts | 292° |
| 2026-05-05 11:25 | -5.79013 | 106.14301 | 20385 ft | 401 kts | 292° |
| 2026-05-05 11:25 | -5.78016 | 106.11712 | 20840 ft | 404 kts | 292° |
| 2026-05-05 11:26 | -5.76999 | 106.09070 | 21286 ft | 407 kts | 292° |
| 2026-05-05 11:26 | -5.75976 | 106.06409 | 21715 ft | 410 kts | 292° |
| 2026-05-05 11:26 | -5.74944 | 106.03731 | 22130 ft | 413 kts | 292° |
| 2026-05-05 11:26 | -5.73900 | 106.01031 | 22532 ft | 415 kts | 292° |
| 2026-05-05 11:27 | -5.72854 | 105.98325 | 22926 ft | 418 kts | 292° |
| 2026-05-05 11:27 | -5.71799 | 105.95592 | 23307 ft | 421 kts | 292° |
| 2026-05-05 11:27 | -5.70736 | 105.92843 | 23682 ft | 424 kts | 292° |
| 2026-05-05 11:27 | -5.69665 | 105.90076 | 24052 ft | 426 kts | 292° |
| 2026-05-05 11:28 | -5.68590 | 105.87293 | 24415 ft | 429 kts | 292° |
| 2026-05-05 11:28 | -5.67510 | 105.84494 | 24782 ft | 431 kts | 292° |
| 2026-05-05 11:28 | -5.66427 | 105.81679 | 25138 ft | 433 kts | 292° |
| 2026-05-05 11:28 | -5.65338 | 105.78850 | 25473 ft | 435 kts | 292° |
| 2026-05-05 11:29 | -5.64610 | 105.76968 | 25701 ft | 437 kts | 292° |
| 2026-05-05 11:29 | -5.63135 | 105.73157 | 26173 ft | 439 kts | 292° |
| 2026-05-05 11:29 | -5.62402 | 105.71263 | 26389 ft | 441 kts | 292° |
| 2026-05-05 11:29 | -5.60914 | 105.67409 | 26829 ft | 443 kts | 292° |
| 2026-05-05 11:30 | -5.60177 | 105.65501 | 27027 ft | 445 kts | 292° |
| 2026-05-05 11:30 | -5.59051 | 105.62593 | 27331 ft | 447 kts | 292° |
| 2026-05-05 11:30 | -5.57920 | 105.59676 | 27654 ft | 449 kts | 292° |
| 2026-05-05 11:30 | -5.56759 | 105.56757 | 27939 ft | 451 kts | 296° |
| 2026-05-05 11:31 | -5.55236 | 105.54005 | 28244 ft | 452 kts | 305° |
| 2026-05-05 11:31 | -5.53390 | 105.51448 | 28534 ft | 453 kts | 307° |
| 2026-05-05 11:31 | -5.51517 | 105.48895 | 28820 ft | 455 kts | 307° |
| 2026-05-05 11:31 | -5.49637 | 105.46334 | 29107 ft | 457 kts | 307° |
| 2026-05-05 11:32 | -5.47749 | 105.43762 | 29393 ft | 458 kts | 307° |
| 2026-05-05 11:32 | -5.45862 | 105.41184 | 29677 ft | 460 kts | 307° |
| 2026-05-05 11:32 | -5.43965 | 105.38589 | 29948 ft | 462 kts | 307° |
| 2026-05-05 11:32 | -5.42062 | 105.35984 | 30211 ft | 464 kts | 307° |
| 2026-05-05 11:33 | -5.40185 | 105.33416 | 30463 ft | 465 kts | 307° |
| 2026-05-05 11:33 | -5.38267 | 105.30792 | 30708 ft | 467 kts | 307° |
| 2026-05-05 11:33 | -5.36341 | 105.28158 | 30940 ft | 469 kts | 307° |
| 2026-05-05 11:33 | -5.34407 | 105.25515 | 31172 ft | 471 kts | 307° |
| 2026-05-05 11:34 | -5.32487 | 105.22893 | 31409 ft | 472 kts | 307° |
| 2026-05-05 11:34 | -5.30545 | 105.20233 | 31744 ft | 471 kts | 307° |
| 2026-05-05 11:34 | -5.28616 | 105.17590 | 32080 ft | 470 kts | 307° |
| 2026-05-05 11:34 | -5.26679 | 105.14940 | 32424 ft | 469 kts | 307° |
| 2026-05-05 11:35 | -5.24755 | 105.12309 | 32752 ft | 468 kts | 307° |
| 2026-05-05 11:35 | -5.22827 | 105.09677 | 33076 ft | 467 kts | 307° |
| 2026-05-05 11:35 | -5.20900 | 105.07048 | 33388 ft | 467 kts | 307° |
| 2026-05-05 11:35 | -5.18980 | 105.04424 | 33714 ft | 466 kts | 307° |
| 2026-05-05 11:36 | -5.17065 | 105.01809 | 34018 ft | 465 kts | 307° |
| 2026-05-05 11:36 | -5.15144 | 104.99186 | 34324 ft | 465 kts | 307° |
| 2026-05-05 11:36 | -5.13233 | 104.96574 | 34616 ft | 464 kts | 307° |
| 2026-05-05 11:36 | -5.11324 | 104.93967 | 34902 ft | 463 kts | 307° |
| 2026-05-05 11:37 | -5.09421 | 104.91372 | 35181 ft | 462 kts | 307° |
| 2026-05-05 11:37 | -5.07515 | 104.88775 | 35462 ft | 461 kts | 307° |
| 2026-05-05 11:37 | -5.05613 | 104.86182 | 35732 ft | 461 kts | 307° |
| 2026-05-05 11:37 | -5.03717 | 104.83597 | 35837 ft | 459 kts | 307° |
| 2026-05-05 11:38 | -5.01835 | 104.81027 | 35869 ft | 456 kts | 307° |
| 2026-05-05 11:38 | -4.98094 | 104.75916 | 35864 ft | 453 kts | 307° |
| 2026-05-05 11:39 | -4.94384 | 104.70859 | 35862 ft | 453 kts | 307° |
| 2026-05-05 11:39 | -4.90643 | 104.65757 | 35869 ft | 453 kts | 307° |
| 2026-05-05 11:40 | -4.86908 | 104.60669 | 35865 ft | 453 kts | 307° |
| 2026-05-05 11:40 | -4.83169 | 104.55582 | 35872 ft | 453 kts | 307° |
| 2026-05-05 11:41 | -4.79440 | 104.50496 | 35861 ft | 453 kts | 307° |
| 2026-05-05 11:41 | -4.75708 | 104.45404 | 35866 ft | 453 kts | 307° |
| 2026-05-05 11:42 | -4.71979 | 104.40316 | 35869 ft | 452 kts | 307° |
| 2026-05-05 11:42 | -4.68252 | 104.35236 | 35877 ft | 452 kts | 307° |
| 2026-05-05 11:43 | -4.64519 | 104.30164 | 35861 ft | 452 kts | 307° |
| 2026-05-05 11:43 | -4.60796 | 104.25091 | 35867 ft | 452 kts | 307° |
| 2026-05-05 11:44 | -4.57072 | 104.20012 | 35849 ft | 452 kts | 307° |
| 2026-05-05 11:44 | -4.53359 | 104.14966 | 35853 ft | 452 kts | 307° |
| 2026-05-05 11:45 | -4.49625 | 104.09893 | 35853 ft | 452 kts | 307° |
| 2026-05-05 11:45 | -4.45896 | 104.04823 | 35851 ft | 452 kts | 307° |
| 2026-05-05 11:46 | -4.42162 | 103.99735 | 35852 ft | 452 kts | 307° |
| 2026-05-05 11:46 | -4.38425 | 103.94658 | 35859 ft | 452 kts | 307° |
| 2026-05-05 11:47 | -4.34690 | 103.89575 | 35846 ft | 452 kts | 306° |
| 2026-05-05 11:47 | -4.30965 | 103.84500 | 35854 ft | 453 kts | 307° |
| 2026-05-05 11:48 | -4.25355 | 103.76876 | 35854 ft | 453 kts | 307° |
| 2026-05-05 11:48 | -4.21638 | 103.71832 | 35859 ft | 453 kts | 307° |
| 2026-05-05 11:49 | -4.17902 | 103.66759 | 35862 ft | 453 kts | 307° |
| 2026-05-05 11:49 | -4.14161 | 103.61675 | 35851 ft | 453 kts | 307° |
| 2026-05-05 11:50 | -4.10420 | 103.56599 | 35861 ft | 453 kts | 307° |
| 2026-05-05 11:50 | -4.06680 | 103.51519 | 35864 ft | 452 kts | 307° |
| 2026-05-05 11:51 | -4.02945 | 103.46449 | 35851 ft | 452 kts | 307° |
| 2026-05-05 11:51 | -3.99213 | 103.41386 | 35850 ft | 452 kts | 307° |
| 2026-05-05 11:52 | -3.95481 | 103.36321 | 35849 ft | 452 kts | 307° |
| 2026-05-05 11:52 | -3.91750 | 103.31253 | 35851 ft | 452 kts | 307° |
| 2026-05-05 11:53 | -3.88045 | 103.26219 | 35846 ft | 452 kts | 307° |
| 2026-05-05 11:53 | -3.84309 | 103.21151 | 35847 ft | 452 kts | 307° |
| 2026-05-05 11:54 | -3.80568 | 103.16085 | 35847 ft | 453 kts | 307° |
| 2026-05-05 11:54 | -3.76821 | 103.11010 | 35855 ft | 453 kts | 307° |
| 2026-05-05 11:55 | -3.73083 | 103.05942 | 35855 ft | 452 kts | 307° |
| 2026-05-05 11:55 | -3.69350 | 103.00871 | 35848 ft | 452 kts | 307° |
| 2026-05-05 11:56 | -3.65609 | 102.95803 | 35846 ft | 452 kts | 307° |
| 2026-05-05 11:56 | -3.61867 | 102.90737 | 35842 ft | 452 kts | 307° |
| 2026-05-05 11:57 | -3.58129 | 102.85666 | 35843 ft | 453 kts | 307° |
| 2026-05-05 11:57 | -3.54384 | 102.80588 | 35844 ft | 453 kts | 307° |
| 2026-05-05 11:58 | -3.50665 | 102.75554 | 35851 ft | 453 kts | 307° |
| 2026-05-05 11:58 | -3.46911 | 102.70473 | 35859 ft | 453 kts | 307° |
| 2026-05-05 11:59 | -3.43166 | 102.65405 | 35850 ft | 453 kts | 307° |
| 2026-05-05 11:59 | -3.39424 | 102.60338 | 35850 ft | 452 kts | 307° |
| 2026-05-05 12:00 | -3.35687 | 102.55273 | 35845 ft | 452 kts | 307° |
| 2026-05-05 12:00 | -3.31953 | 102.50219 | 35848 ft | 452 kts | 307° |
| 2026-05-05 12:01 | -3.28214 | 102.45157 | 35839 ft | 452 kts | 307° |
| 2026-05-05 12:01 | -3.24473 | 102.40097 | 35845 ft | 452 kts | 307° |
| 2026-05-05 12:02 | -3.20749 | 102.35069 | 35839 ft | 452 kts | 307° |
| 2026-05-05 12:02 | -3.17003 | 102.30008 | 35844 ft | 452 kts | 307° |
| 2026-05-05 12:03 | -3.13256 | 102.24942 | 35842 ft | 452 kts | 307° |
| 2026-05-05 12:03 | -3.09518 | 102.19876 | 35858 ft | 452 kts | 307° |
| 2026-05-05 12:04 | -3.05775 | 102.14812 | 35852 ft | 452 kts | 307° |
| 2026-05-05 12:04 | -3.02025 | 102.09746 | 35858 ft | 452 kts | 307° |
| 2026-05-05 12:05 | -2.98281 | 102.04687 | 35865 ft | 452 kts | 307° |
| 2026-05-05 12:05 | -2.94563 | 101.99663 | 35859 ft | 452 kts | 307° |
| 2026-05-05 12:06 | -2.90820 | 101.94605 | 35858 ft | 452 kts | 306° |
| 2026-05-05 12:06 | -2.87085 | 101.89551 | 35872 ft | 452 kts | 306° |
| 2026-05-05 12:07 | -2.83346 | 101.84494 | 35860 ft | 452 kts | 306° |
| 2026-05-05 12:07 | -2.79610 | 101.79433 | 35856 ft | 452 kts | 306° |
| 2026-05-05 12:08 | -2.75877 | 101.74384 | 35855 ft | 452 kts | 306° |
| 2026-05-05 12:08 | -2.72138 | 101.69335 | 35863 ft | 452 kts | 306° |
| 2026-05-05 12:09 | -2.68391 | 101.64290 | 35857 ft | 452 kts | 306° |
| 2026-05-05 12:09 | -2.64647 | 101.59241 | 35856 ft | 452 kts | 306° |
| 2026-05-05 12:10 | -2.60928 | 101.54221 | 35859 ft | 451 kts | 306° |
| 2026-05-05 12:10 | -2.57189 | 101.49164 | 35563 ft | 451 kts | 306° |
| 2026-05-05 12:11 | -2.55326 | 101.46646 | 35313 ft | 450 kts | 306° |
| 2026-05-05 12:11 | -2.53469 | 101.44133 | 35060 ft | 448 kts | 306° |
| 2026-05-05 12:11 | -2.51612 | 101.41626 | 34807 ft | 447 kts | 306° |
| 2026-05-05 12:11 | -2.49763 | 101.39134 | 34560 ft | 445 kts | 306° |
| 2026-05-05 12:12 | -2.47926 | 101.36652 | 34316 ft | 443 kts | 306° |
| 2026-05-05 12:12 | -2.46097 | 101.34182 | 34060 ft | 441 kts | 306° |
| 2026-05-05 12:12 | -2.44266 | 101.31716 | 33811 ft | 440 kts | 306° |
| 2026-05-05 12:12 | -2.42470 | 101.29299 | 33565 ft | 438 kts | 306° |
| 2026-05-05 12:13 | -2.40658 | 101.26856 | 33311 ft | 436 kts | 306° |
| 2026-05-05 12:13 | -2.39440 | 101.25214 | 33144 ft | 435 kts | 306° |
| 2026-05-05 12:13 | -2.38241 | 101.23598 | 32973 ft | 434 kts | 306° |
| 2026-05-05 12:13 | -2.36446 | 101.21174 | 32719 ft | 432 kts | 306° |
| 2026-05-05 12:14 | -2.34660 | 101.18759 | 32485 ft | 431 kts | 306° |
| 2026-05-05 12:14 | -2.32873 | 101.16343 | 32222 ft | 430 kts | 307° |
| 2026-05-05 12:14 | -2.31098 | 101.13946 | 31970 ft | 429 kts | 307° |
| 2026-05-05 12:14 | -2.29328 | 101.11559 | 31725 ft | 427 kts | 307° |
| 2026-05-05 12:15 | -2.27562 | 101.09175 | 31471 ft | 426 kts | 307° |
| 2026-05-05 12:15 | -2.25802 | 101.06801 | 31218 ft | 424 kts | 307° |
| 2026-05-05 12:15 | -2.24048 | 101.04436 | 30967 ft | 423 kts | 307° |
| 2026-05-05 12:15 | -2.22889 | 101.02873 | 30813 ft | 422 kts | 307° |
| 2026-05-05 12:16 | -2.21143 | 101.00519 | 30551 ft | 421 kts | 307° |
| 2026-05-05 12:16 | -2.19398 | 100.98171 | 30300 ft | 419 kts | 307° |
| 2026-05-05 12:16 | -2.17661 | 100.95831 | 30058 ft | 418 kts | 307° |
| 2026-05-05 12:16 | -2.15371 | 100.92744 | 29721 ft | 416 kts | 307° |
| 2026-05-05 12:17 | -2.14210 | 100.91178 | 29547 ft | 415 kts | 307° |
| 2026-05-05 12:17 | -2.12493 | 100.88864 | 29300 ft | 414 kts | 307° |
| 2026-05-05 12:17 | -2.10784 | 100.86558 | 29045 ft | 412 kts | 307° |
| 2026-05-05 12:17 | -2.09075 | 100.84252 | 28800 ft | 411 kts | 307° |
| 2026-05-05 12:18 | -2.07374 | 100.81960 | 28547 ft | 409 kts | 307° |
| 2026-05-05 12:18 | -2.05680 | 100.79677 | 28301 ft | 408 kts | 307° |
| 2026-05-05 12:18 | -2.03991 | 100.77409 | 28044 ft | 407 kts | 307° |
| 2026-05-05 12:18 | -2.02325 | 100.75169 | 27798 ft | 405 kts | 307° |
| 2026-05-05 12:19 | -2.00652 | 100.72914 | 27548 ft | 404 kts | 307° |
| 2026-05-05 12:19 | -1.98978 | 100.70654 | 27297 ft | 403 kts | 307° |
| 2026-05-05 12:19 | -1.97312 | 100.68407 | 27045 ft | 402 kts | 307° |
| 2026-05-05 12:19 | -1.95651 | 100.66166 | 26800 ft | 400 kts | 307° |
| 2026-05-05 12:20 | -1.94001 | 100.63939 | 26517 ft | 395 kts | 307° |
| 2026-05-05 12:20 | -1.92373 | 100.61738 | 26045 ft | 392 kts | 307° |
| 2026-05-05 12:20 | -1.90729 | 100.59573 | 25586 ft | 389 kts | 313° |
| 2026-05-05 12:20 | -1.88770 | 100.57736 | 25108 ft | 384 kts | 325° |
| 2026-05-05 12:21 | -1.86489 | 100.56381 | 24628 ft | 379 kts | 338° |
| 2026-05-05 12:21 | -1.84008 | 100.55544 | 24145 ft | 375 kts | 348° |
| 2026-05-05 12:21 | -1.81489 | 100.54895 | 23662 ft | 373 kts | 347° |
| 2026-05-05 12:21 | -1.78982 | 100.54236 | 23168 ft | 371 kts | 347° |
| 2026-05-05 12:22 | -1.76494 | 100.53577 | 22699 ft | 369 kts | 347° |
| 2026-05-05 12:22 | -1.74014 | 100.52919 | 22224 ft | 368 kts | 347° |
| 2026-05-05 12:22 | -1.71542 | 100.52266 | 21755 ft | 367 kts | 347° |
| 2026-05-05 12:22 | -1.69074 | 100.51614 | 21301 ft | 365 kts | 347° |
| 2026-05-05 12:23 | -1.66627 | 100.50968 | 20842 ft | 364 kts | 347° |
| 2026-05-05 12:23 | -1.64178 | 100.50323 | 20375 ft | 362 kts | 347° |
| 2026-05-05 12:23 | -1.61752 | 100.49687 | 19933 ft | 360 kts | 347° |
| 2026-05-05 12:23 | -1.59332 | 100.49051 | 19485 ft | 359 kts | 347° |
| 2026-05-05 12:24 | -1.56952 | 100.48424 | 19040 ft | 357 kts | 347° |
| 2026-05-05 12:24 | -1.54557 | 100.47792 | 18601 ft | 355 kts | 347° |
| 2026-05-05 12:24 | -1.52144 | 100.47156 | 18158 ft | 353 kts | 347° |
| 2026-05-05 12:24 | -1.49805 | 100.46539 | 17730 ft | 351 kts | 347° |
| 2026-05-05 12:25 | -1.47447 | 100.45916 | 17298 ft | 350 kts | 347° |
| 2026-05-05 12:25 | -1.45104 | 100.45299 | 16867 ft | 348 kts | 347° |
| 2026-05-05 12:25 | -1.42764 | 100.44683 | 16448 ft | 346 kts | 346° |
| 2026-05-05 12:25 | -1.40438 | 100.44072 | 16041 ft | 345 kts | 346° |
| 2026-05-05 12:26 | -1.38126 | 100.43464 | 15624 ft | 343 kts | 346° |
| 2026-05-05 12:26 | -1.35820 | 100.42858 | 15210 ft | 342 kts | 346° |
| 2026-05-05 12:26 | -1.33525 | 100.42256 | 14811 ft | 340 kts | 346° |
| 2026-05-05 12:26 | -1.31237 | 100.41656 | 14406 ft | 338 kts | 346° |
| 2026-05-05 12:27 | -1.28966 | 100.41061 | 14006 ft | 337 kts | 346° |
| 2026-05-05 12:27 | -1.26700 | 100.40466 | 13601 ft | 336 kts | 346° |
| 2026-05-05 12:27 | -1.24449 | 100.39871 | 13192 ft | 334 kts | 346° |
| 2026-05-05 12:27 | -1.22206 | 100.39277 | 12782 ft | 332 kts | 345° |
| 2026-05-05 12:28 | -1.20021 | 100.38552 | 12375 ft | 331 kts | 334° |
| 2026-05-05 12:28 | -1.18103 | 100.37302 | 11963 ft | 329 kts | 318° |
| 2026-05-05 12:28 | -1.16526 | 100.35678 | 11693 ft | 322 kts | 313° |
| 2026-05-05 12:28 | -1.14996 | 100.34054 | 11303 ft | 321 kts | 313° |
| 2026-05-05 12:29 | -1.13479 | 100.32456 | 10895 ft | 319 kts | 313° |
| 2026-05-05 12:29 | -1.11958 | 100.30855 | 10472 ft | 317 kts | 313° |
| 2026-05-05 12:29 | -1.10443 | 100.29258 | 10052 ft | 316 kts | 313° |
| 2026-05-05 12:29 | -1.08924 | 100.27656 | 9814 ft | 308 kts | 313° |
| 2026-05-05 12:30 | -1.07499 | 100.26153 | 9479 ft | 296 kts | 313° |
| 2026-05-05 12:30 | -1.06086 | 100.24663 | 8818 ft | 292 kts | 313° |
| 2026-05-05 12:30 | -1.04714 | 100.23218 | 8387 ft | 281 kts | 313° |
| 2026-05-05 12:30 | -1.03399 | 100.21831 | 7990 ft | 270 kts | 313° |
| 2026-05-05 12:31 | -1.02025 | 100.20604 | 7609 ft | 264 kts | 328° |
| 2026-05-05 12:31 | -1.00315 | 100.19957 | 7220 ft | 264 kts | 351° |
| 2026-05-05 12:31 | -0.98491 | 100.20020 | 6835 ft | 264 kts | 13° |
| 2026-05-05 12:31 | -0.96800 | 100.20658 | 6628 ft | 257 kts | 36° |
| 2026-05-05 12:32 | -0.95742 | 100.22075 | 6575 ft | 261 kts | 73° |
| 2026-05-05 12:32 | -0.95726 | 100.23863 | 6520 ft | 262 kts | 109° |
| 2026-05-05 12:32 | -0.96631 | 100.25460 | 5979 ft | 272 kts | 128° |
| 2026-05-05 12:32 | -0.97828 | 100.26971 | 5344 ft | 280 kts | 128° |
| 2026-05-05 12:33 | -0.98991 | 100.28537 | 4881 ft | 280 kts | 124° |
| 2026-05-05 12:33 | -0.99901 | 100.30231 | 4605 ft | 272 kts | 107° |
| 2026-05-05 12:33 | -1.00112 | 100.32036 | 4558 ft | 255 kts | 84° |
| 2026-05-05 12:33 | -0.99779 | 100.33719 | 4486 ft | 241 kts | 70° |
| 2026-05-05 12:34 | -0.98848 | 100.35005 | 4425 ft | 226 kts | 33° |
| 2026-05-05 12:34 | -0.97413 | 100.35463 | 4346 ft | 214 kts | 358° |
| 2026-05-05 12:34 | -0.95980 | 100.35413 | 4263 ft | 205 kts | 360° |
| 2026-05-05 12:34 | -0.94595 | 100.35267 | 4201 ft | 194 kts | 344° |
| 2026-05-05 12:35 | -0.93369 | 100.34825 | 4099 ft | 182 kts | 337° |
| 2026-05-05 12:35 | -0.92234 | 100.34327 | 3965 ft | 173 kts | 335° |
| 2026-05-05 12:35 | -0.91164 | 100.33839 | 3831 ft | 165 kts | 335° |
| 2026-05-05 12:35 | -0.90157 | 100.33376 | 3712 ft | 156 kts | 335° |
| 2026-05-05 12:36 | -0.89183 | 100.32928 | 3527 ft | 147 kts | 335° |
| 2026-05-05 12:36 | -0.88228 | 100.32486 | 3063 ft | 155 kts | 335° |
| 2026-05-05 12:36 | -0.87210 | 100.32020 | 2459 ft | 165 kts | 335° |
| 2026-05-05 12:36 | -0.86173 | 100.31547 | 2029 ft | 161 kts | 336° |
| 2026-05-05 12:37 | -0.85153 | 100.31078 | 1531 ft | 162 kts | 335° |
| 2026-05-05 12:37 | -0.84145 | 100.30607 | 1096 ft | 160 kts | 335° |
| 2026-05-05 12:37 | -0.83143 | 100.30143 | 727 ft | 154 kts | 334° |
| 2026-05-05 12:37 | -0.82201 | 100.29712 | 473 ft | 145 kts | 336° |
| 2026-05-05 12:38 | -0.81302 | 100.29295 | 327 ft | 141 kts | 334° |
| 2026-05-05 12:38 | -0.80417 | 100.28872 | 181 ft | 140 kts | 335° |
| 2026-05-05 12:38 | -0.79529 | 100.28472 | 43 ft | 136 kts | 335° |
| 2026-05-05 12:38 | -0.78772 | 100.28118 | 30 ft | 92 kts | 335° |
| 2026-05-05 12:39 | -0.78414 | 100.27951 | 23 ft | 42 kts | 335° |
| 2026-05-05 12:39 | -0.78242 | 100.27884 | 23 ft | 18 kts | 0° |
| 2026-05-05 12:39 | -0.78175 | 100.27864 | 23 ft | 4 kts | 260° |
| 2026-05-05 12:39 | -0.78201 | 100.27852 | 23 ft | 7 kts | 181° |
| 2026-05-05 12:40 | -0.78282 | 100.27890 | 23 ft | 16 kts | 154° |
| 2026-05-05 12:40 | -0.78404 | 100.27946 | 23 ft | 24 kts | 155° |
| 2026-05-05 12:40 | -0.78550 | 100.28015 | 26 ft | 16 kts | 155° |
| 2026-05-05 12:40 | -0.78566 | 100.28097 | 26 ft | 14 kts | 65° |
| 2026-05-05 12:41 | -0.78523 | 100.28189 | 29 ft | 15 kts | 65° |
| 2026-05-05 12:41 | -0.78483 | 100.28293 | 24 ft | 16 kts | 99° |
| 2026-05-05 12:41 | -0.78573 | 100.28355 | 25 ft | 17 kts | 155° |
| 2026-05-05 12:41 | -0.78679 | 100.28404 | 26 ft | 14 kts | 155° |
| 2026-05-05 12:42 | -0.78711 | 100.28442 | 24 ft | 6 kts | 82° |
| 2026-05-05 12:42 | -0.78694 | 100.28476 | 24 ft | 5 kts | 67° |
| 2026-05-05 12:42 | -0.78682 | 100.28502 | 24 ft | 3 kts | 65° |
| 2026-05-05 12:42 | -0.78676 | 100.28514 | 24 ft | 0 kts | 65° |